sensor_id;sensor_type;location;lat;lon;timestamp;temperature;humidity
68128;SHT30;54931;52.098;21.006;2023-06-22T00:00:27;19.22;83.82
68128;SHT30;54931;52.098;21.006;2023-06-22T00:03:19;19.19;83.94
68128;SHT30;54931;52.098;21.006;2023-06-22T00:05:50;19.15;83.92
68128;SHT30;54931;52.098;21.006;2023-06-22T00:08:19;19.12;84.05
68128;SHT30;54931;52.098;21.006;2023-06-22T00:10:47;19.09;84.07
68128;SHT30;54931;52.098;21.006;2023-06-22T00:13:14;19.05;84.10
68128;SHT30;54931;52.098;21.006;2023-06-22T00:15:45;19.02;84.17
68128;SHT30;54931;52.098;21.006;2023-06-22T00:18:13;19.00;84.20
68128;SHT30;54931;52.098;21.006;2023-06-22T00:20:41;18.96;84.23
68128;SHT30;54931;52.098;21.006;2023-06-22T00:23:09;18.94;84.28
68128;SHT30;54931;52.098;21.006;2023-06-22T00:25:37;18.91;84.33
68128;SHT30;54931;52.098;21.006;2023-06-22T00:28:09;18.87;84.34
68128;SHT30;54931;52.098;21.006;2023-06-22T00:30:37;18.84;84.36
68128;SHT30;54931;52.098;21.006;2023-06-22T00:33:05;18.82;84.40
68128;SHT30;54931;52.098;21.006;2023-06-22T00:35:34;18.79;84.44
68128;SHT30;54931;52.098;21.006;2023-06-22T00:38:02;18.76;84.48
68128;SHT30;54931;52.098;21.006;2023-06-22T00:40:32;18.73;84.48
68128;SHT30;54931;52.098;21.006;2023-06-22T00:43:00;18.69;84.60
68128;SHT30;54931;52.098;21.006;2023-06-22T00:45:29;18.67;84.60
68128;SHT30;54931;52.098;21.006;2023-06-22T00:47:57;18.63;84.60
68128;SHT30;54931;52.098;21.006;2023-06-22T00:50:27;18.60;84.62
68128;SHT30;54931;52.098;21.006;2023-06-22T00:53:03;18.60;84.78
68128;SHT30;54931;52.098;21.006;2023-06-22T00:55:38;18.58;84.77
68128;SHT30;54931;52.098;21.006;2023-06-22T00:58:19;18.55;84.74
68128;SHT30;54931;52.098;21.006;2023-06-22T01:00:52;18.53;84.81
68128;SHT30;54931;52.098;21.006;2023-06-22T01:03:19;18.52;84.90
68128;SHT30;54931;52.098;21.006;2023-06-22T01:05:48;18.50;84.97
68128;SHT30;54931;52.098;21.006;2023-06-22T01:11:18;18.49;85.07
68128;SHT30;54931;52.098;21.006;2023-06-22T01:16:41;18.48;85.13
68128;SHT30;54931;52.098;21.006;2023-06-22T01:22:16;18.44;85.06
68128;SHT30;54931;52.098;21.006;2023-06-22T01:30:24;18.38;85.20
68128;SHT30;54931;52.098;21.006;2023-06-22T01:32:53;18.37;85.28
68128;SHT30;54931;52.098;21.006;2023-06-22T01:35:24;18.37;85.37
68128;SHT30;54931;52.098;21.006;2023-06-22T01:37:53;18.36;85.32
68128;SHT30;54931;52.098;21.006;2023-06-22T01:40:23;18.35;85.33
68128;SHT30;54931;52.098;21.006;2023-06-22T01:42:53;18.33;85.39
68128;SHT30;54931;52.098;21.006;2023-06-22T01:45:21;18.33;85.40
68128;SHT30;54931;52.098;21.006;2023-06-22T01:47:50;18.32;85.40
68128;SHT30;54931;52.098;21.006;2023-06-22T01:50:18;18.31;85.41
68128;SHT30;54931;52.098;21.006;2023-06-22T01:52:46;18.30;85.46
68128;SHT30;54931;52.098;21.006;2023-06-22T01:55:14;18.30;85.55
68128;SHT30;54931;52.098;21.006;2023-06-22T01:57:42;18.31;85.56
68128;SHT30;54931;52.098;21.006;2023-06-22T02:00:14;18.29;85.51
68128;SHT30;54931;52.098;21.006;2023-06-22T02:03:01;18.28;85.51
68128;SHT30;54931;52.098;21.006;2023-06-22T02:05:39;18.27;85.53
68128;SHT30;54931;52.098;21.006;2023-06-22T02:08:17;18.25;85.57
68128;SHT30;54931;52.098;21.006;2023-06-22T02:10:53;18.27;85.68
68128;SHT30;54931;52.098;21.006;2023-06-22T02:13:25;18.28;85.80
68128;SHT30;54931;52.098;21.006;2023-06-22T02:15:53;18.30;85.80
68128;SHT30;54931;52.098;21.006;2023-06-22T02:18:22;18.31;85.80
68128;SHT30;54931;52.098;21.006;2023-06-22T02:20:50;18.33;85.75
68128;SHT30;54931;52.098;21.006;2023-06-22T02:23:17;18.32;85.78
68128;SHT30;54931;52.098;21.006;2023-06-22T02:25:45;18.34;85.92
68128;SHT30;54931;52.098;21.006;2023-06-22T02:28:13;18.38;86.02
68128;SHT30;54931;52.098;21.006;2023-06-22T02:30:41;18.42;86.10
68128;SHT30;54931;52.098;21.006;2023-06-22T02:33:09;18.49;86.11
68128;SHT30;54931;52.098;21.006;2023-06-22T02:35:37;18.53;86.10
68128;SHT30;54931;52.098;21.006;2023-06-22T02:38:04;18.59;86.08
68128;SHT30;54931;52.098;21.006;2023-06-22T02:40:32;18.63;86.08
68128;SHT30;54931;52.098;21.006;2023-06-22T02:43:00;18.69;86.11
68128;SHT30;54931;52.098;21.006;2023-06-22T02:45:30;18.74;86.20
68128;SHT30;54931;52.098;21.006;2023-06-22T02:47:58;18.83;86.33
68128;SHT30;54931;52.098;21.006;2023-06-22T02:50:25;18.91;86.41
68128;SHT30;54931;52.098;21.006;2023-06-22T02:52:53;18.97;86.48
68128;SHT30;54931;52.098;21.006;2023-06-22T02:55:21;19.05;86.73
68128;SHT30;54931;52.098;21.006;2023-06-22T02:57:50;19.12;86.80
68128;SHT30;54931;52.098;21.006;2023-06-22T03:00:20;19.17;86.83
68128;SHT30;54931;52.098;21.006;2023-06-22T03:02:48;19.21;86.73
68128;SHT30;54931;52.098;21.006;2023-06-22T03:05:16;19.25;86.62
68128;SHT30;54931;52.098;21.006;2023-06-22T03:07:45;19.27;86.59
68128;SHT30;54931;52.098;21.006;2023-06-22T03:10:13;19.29;86.60
68128;SHT30;54931;52.098;21.006;2023-06-22T03:12:42;19.32;86.57
68128;SHT30;54931;52.098;21.006;2023-06-22T03:15:11;19.34;86.70
68128;SHT30;54931;52.098;21.006;2023-06-22T03:17:40;19.36;86.73
68128;SHT30;54931;52.098;21.006;2023-06-22T03:20:09;19.39;86.84
68128;SHT30;54931;52.098;21.006;2023-06-22T03:22:39;19.41;86.77
68128;SHT30;54931;52.098;21.006;2023-06-22T03:25:08;19.44;86.88
68128;SHT30;54931;52.098;21.006;2023-06-22T03:27:40;19.47;86.94
68128;SHT30;54931;52.098;21.006;2023-06-22T03:30:09;19.50;86.80
68128;SHT30;54931;52.098;21.006;2023-06-22T03:32:39;19.52;86.83
68128;SHT30;54931;52.098;21.006;2023-06-22T03:35:07;19.56;86.71
68128;SHT30;54931;52.098;21.006;2023-06-22T03:37:36;19.59;86.73
68128;SHT30;54931;52.098;21.006;2023-06-22T03:40:05;19.63;86.66
68128;SHT30;54931;52.098;21.006;2023-06-22T03:42:35;19.66;86.64
68128;SHT30;54931;52.098;21.006;2023-06-22T03:45:04;19.69;86.61
68128;SHT30;54931;52.098;21.006;2023-06-22T03:47:33;19.73;86.59
68128;SHT30;54931;52.098;21.006;2023-06-22T03:50:02;19.76;86.54
68128;SHT30;54931;52.098;21.006;2023-06-22T03:52:32;19.82;86.52
68128;SHT30;54931;52.098;21.006;2023-06-22T03:55:00;19.86;86.48
68128;SHT30;54931;52.098;21.006;2023-06-22T03:57:28;19.90;86.40
68128;SHT30;54931;52.098;21.006;2023-06-22T03:59:56;19.94;86.32
68128;SHT30;54931;52.098;21.006;2023-06-22T04:02:25;19.96;86.31
68128;SHT30;54931;52.098;21.006;2023-06-22T04:04:53;19.98;86.22
68128;SHT30;54931;52.098;21.006;2023-06-22T04:07:21;20.02;86.19
68128;SHT30;54931;52.098;21.006;2023-06-22T04:09:48;20.05;86.17
68128;SHT30;54931;52.098;21.006;2023-06-22T04:12:16;20.08;86.10
68128;SHT30;54931;52.098;21.006;2023-06-22T04:14:44;20.12;86.10
68128;SHT30;54931;52.098;21.006;2023-06-22T04:17:12;20.17;86.04
68128;SHT30;54931;52.098;21.006;2023-06-22T04:19:41;20.18;85.88
68128;SHT30;54931;52.098;21.006;2023-06-22T04:22:09;20.21;85.81
68128;SHT30;54931;52.098;21.006;2023-06-22T04:24:37;20.23;85.72
68128;SHT30;54931;52.098;21.006;2023-06-22T04:27:05;20.27;85.74
68128;SHT30;54931;52.098;21.006;2023-06-22T04:29:33;20.33;85.74
68128;SHT30;54931;52.098;21.006;2023-06-22T04:32:01;20.38;85.68
68128;SHT30;54931;52.098;21.006;2023-06-22T04:34:32;20.43;85.55
68128;SHT30;54931;52.098;21.006;2023-06-22T04:36:59;20.47;85.46
68128;SHT30;54931;52.098;21.006;2023-06-22T04:39:27;20.51;85.32
68128;SHT30;54931;52.098;21.006;2023-06-22T04:41:55;20.55;85.21
68128;SHT30;54931;52.098;21.006;2023-06-22T04:44:27;20.59;85.15
68128;SHT30;54931;52.098;21.006;2023-06-22T04:46:58;20.65;85.05
68128;SHT30;54931;52.098;21.006;2023-06-22T04:49:30;20.67;84.74
68128;SHT30;54931;52.098;21.006;2023-06-22T04:52:04;20.68;84.62
68128;SHT30;54931;52.098;21.006;2023-06-22T04:54:35;20.69;84.59
68128;SHT30;54931;52.098;21.006;2023-06-22T04:57:06;20.73;84.66
68128;SHT30;54931;52.098;21.006;2023-06-22T04:59:38;20.76;84.39
68128;SHT30;54931;52.098;21.006;2023-06-22T05:02:08;20.76;84.22
68128;SHT30;54931;52.098;21.006;2023-06-22T05:04:37;20.76;84.12
68128;SHT30;54931;52.098;21.006;2023-06-22T05:07:08;20.78;84.08
68128;SHT30;54931;52.098;21.006;2023-06-22T05:09:36;20.83;84.15
68128;SHT30;54931;52.098;21.006;2023-06-22T05:12:05;20.88;84.07
68128;SHT30;54931;52.098;21.006;2023-06-22T05:14:34;20.89;83.78
68128;SHT30;54931;52.098;21.006;2023-06-22T05:17:02;20.89;83.68
68128;SHT30;54931;52.098;21.006;2023-06-22T05:19:30;20.90;83.66
68128;SHT30;54931;52.098;21.006;2023-06-22T05:22:00;20.90;83.49
68128;SHT30;54931;52.098;21.006;2023-06-22T05:24:28;20.93;83.46
68128;SHT30;54931;52.098;21.006;2023-06-22T05:26:55;20.97;83.39
68128;SHT30;54931;52.098;21.006;2023-06-22T05:29:23;21.01;83.33
68128;SHT30;54931;52.098;21.006;2023-06-22T05:31:51;21.07;83.34
68128;SHT30;54931;52.098;21.006;2023-06-22T05:34:19;21.10;82.83
68128;SHT30;54931;52.098;21.006;2023-06-22T05:36:47;21.10;82.77
68128;SHT30;54931;52.098;21.006;2023-06-22T05:39:14;21.09;82.70
68128;SHT30;54931;52.098;21.006;2023-06-22T05:41:44;21.11;82.65
68128;SHT30;54931;52.098;21.006;2023-06-22T05:44:13;21.12;82.57
68128;SHT30;54931;52.098;21.006;2023-06-22T05:46:41;21.16;82.53
68128;SHT30;54931;52.098;21.006;2023-06-22T05:49:11;21.17;82.43
68128;SHT30;54931;52.098;21.006;2023-06-22T05:51:42;21.22;82.42
68128;SHT30;54931;52.098;21.006;2023-06-22T05:54:10;21.24;82.21
68128;SHT30;54931;52.098;21.006;2023-06-22T05:56:40;21.28;82.30
68128;SHT30;54931;52.098;21.006;2023-06-22T05:59:09;21.32;82.17
68128;SHT30;54931;52.098;21.006;2023-06-22T06:01:36;21.33;81.94
68128;SHT30;54931;52.098;21.006;2023-06-22T06:04:04;21.37;82.05
68128;SHT30;54931;52.098;21.006;2023-06-22T06:06:32;21.44;82.08
68128;SHT30;54931;52.098;21.006;2023-06-22T06:09:04;21.53;81.95
68128;SHT30;54931;52.098;21.006;2023-06-22T06:11:32;21.56;81.38
68128;SHT30;54931;52.098;21.006;2023-06-22T06:14:00;21.57;81.33
68128;SHT30;54931;52.098;21.006;2023-06-22T06:16:28;21.59;81.07
68128;SHT30;54931;52.098;21.006;2023-06-22T06:18:55;21.58;80.86
68128;SHT30;54931;52.098;21.006;2023-06-22T06:21:26;21.58;80.91
68128;SHT30;54931;52.098;21.006;2023-06-22T06:23:55;21.61;80.98
68128;SHT30;54931;52.098;21.006;2023-06-22T06:26:23;21.66;80.91
68128;SHT30;54931;52.098;21.006;2023-06-22T06:28:57;21.72;80.74
68128;SHT30;54931;52.098;21.006;2023-06-22T06:31:24;21.77;80.53
68128;SHT30;54931;52.098;21.006;2023-06-22T06:33:56;21.81;80.25
68128;SHT30;54931;52.098;21.006;2023-06-22T06:36:24;21.87;80.20
68128;SHT30;54931;52.098;21.006;2023-06-22T06:38:52;21.93;79.78
68128;SHT30;54931;52.098;21.006;2023-06-22T06:41:20;22.03;79.98
68128;SHT30;54931;52.098;21.006;2023-06-22T06:43:48;22.17;80.04
68128;SHT30;54931;52.098;21.006;2023-06-22T06:46:16;22.35;79.96
68128;SHT30;54931;52.098;21.006;2023-06-22T06:48:45;22.57;79.42
68128;SHT30;54931;52.098;21.006;2023-06-22T06:51:14;22.77;78.64
68128;SHT30;54931;52.098;21.006;2023-06-22T06:53:41;22.84;76.85
68128;SHT30;54931;52.098;21.006;2023-06-22T06:56:09;22.89;76.91
68128;SHT30;54931;52.098;21.006;2023-06-22T06:58:40;23.15;77.36
68128;SHT30;54931;52.098;21.006;2023-06-22T07:01:12;23.58;77.01
68128;SHT30;54931;52.098;21.006;2023-06-22T07:03:40;23.96;75.60
68128;SHT30;54931;52.098;21.006;2023-06-22T07:06:09;24.05;74.32
68128;SHT30;54931;52.098;21.006;2023-06-22T07:08:37;24.01;73.69
68128;SHT30;54931;52.098;21.006;2023-06-22T07:11:06;23.94;73.02
68128;SHT30;54931;52.098;21.006;2023-06-22T07:13:34;24.16;72.76
68128;SHT30;54931;52.098;21.006;2023-06-22T07:16:02;24.42;72.96
68128;SHT30;54931;52.098;21.006;2023-06-22T07:18:30;24.57;71.89
68128;SHT30;54931;52.098;21.006;2023-06-22T07:20:58;24.70;71.93
68128;SHT30;54931;52.098;21.006;2023-06-22T07:23:26;24.92;71.46
68128;SHT30;54931;52.098;21.006;2023-06-22T07:25:53;25.20;70.22
68128;SHT30;54931;52.098;21.006;2023-06-22T07:28:21;25.51;69.82
68128;SHT30;54931;52.098;21.006;2023-06-22T07:30:49;25.81;67.96
68128;SHT30;54931;52.098;21.006;2023-06-22T07:33:18;26.13;66.51
68128;SHT30;54931;52.098;21.006;2023-06-22T07:35:46;26.06;66.17
68128;SHT30;54931;52.098;21.006;2023-06-22T07:38:15;25.99;65.27
68128;SHT30;54931;52.098;21.006;2023-06-22T07:40:43;26.18;66.15
68128;SHT30;54931;52.098;21.006;2023-06-22T07:43:11;26.53;65.44
68128;SHT30;54931;52.098;21.006;2023-06-22T07:45:39;26.85;64.08
68128;SHT30;54931;52.098;21.006;2023-06-22T07:48:08;26.99;63.53
68128;SHT30;54931;52.098;21.006;2023-06-22T07:50:35;27.09;62.25
68128;SHT30;54931;52.098;21.006;2023-06-22T07:53:03;26.89;62.01
68128;SHT30;54931;52.098;21.006;2023-06-22T07:55:31;26.86;61.88
68128;SHT30;54931;52.098;21.006;2023-06-22T07:57:59;26.96;62.29
68128;SHT30;54931;52.098;21.006;2023-06-22T08:00:27;27.06;60.37
68128;SHT30;54931;52.098;21.006;2023-06-22T08:02:55;27.13;60.00
68128;SHT30;54931;52.098;21.006;2023-06-22T08:05:23;27.26;59.44
68128;SHT30;54931;52.098;21.006;2023-06-22T08:07:51;27.10;58.44
68128;SHT30;54931;52.098;21.006;2023-06-22T08:10:20;27.03;57.57
68128;SHT30;54931;52.098;21.006;2023-06-22T08:12:48;26.98;56.93
68128;SHT30;54931;52.098;21.006;2023-06-22T08:15:16;27.05;58.14
68128;SHT30;54931;52.098;21.006;2023-06-22T08:17:45;27.23;57.66
68128;SHT30;54931;52.098;21.006;2023-06-22T08:20:13;27.45;57.65
68128;SHT30;54931;52.098;21.006;2023-06-22T08:22:41;27.73;56.72
68128;SHT30;54931;52.098;21.006;2023-06-22T08:25:10;27.99;54.96
68128;SHT30;54931;52.098;21.006;2023-06-22T08:27:40;28.04;54.05
68128;SHT30;54931;52.098;21.006;2023-06-22T08:30:12;28.06;54.22
68128;SHT30;54931;52.098;21.006;2023-06-22T08:32:40;28.21;54.37
68128;SHT30;54931;52.098;21.006;2023-06-22T08:35:08;28.38;53.98
68128;SHT30;54931;52.098;21.006;2023-06-22T08:37:36;28.43;53.42
68128;SHT30;54931;52.098;21.006;2023-06-22T08:40:07;28.44;54.60
68128;SHT30;54931;52.098;21.006;2023-06-22T08:42:37;28.62;53.97
68128;SHT30;54931;52.098;21.006;2023-06-22T08:45:07;28.76;52.99
68128;SHT30;54931;52.098;21.006;2023-06-22T08:47:38;28.74;53.27
68128;SHT30;54931;52.098;21.006;2023-06-22T08:50:11;28.86;52.51
68128;SHT30;54931;52.098;21.006;2023-06-22T08:52:40;28.90;51.03
68128;SHT30;54931;52.098;21.006;2023-06-22T08:55:08;28.88;51.77
68128;SHT30;54931;52.098;21.006;2023-06-22T08:57:37;29.01;51.36
68128;SHT30;54931;52.098;21.006;2023-06-22T09:00:07;29.17;50.43
68128;SHT30;54931;52.098;21.006;2023-06-22T09:02:44;29.12;50.04
68128;SHT30;54931;52.098;21.006;2023-06-22T09:05:14;29.04;50.78
68128;SHT30;54931;52.098;21.006;2023-06-22T09:07:43;29.08;50.29
68128;SHT30;54931;52.098;21.006;2023-06-22T09:10:11;29.12;48.97
68128;SHT30;54931;52.098;21.006;2023-06-22T09:12:39;29.15;49.22
68128;SHT30;54931;52.098;21.006;2023-06-22T09:15:07;29.17;49.37
68128;SHT30;54931;52.098;21.006;2023-06-22T09:17:36;29.19;48.52
68128;SHT30;54931;52.098;21.006;2023-06-22T09:20:05;29.13;47.81
68128;SHT30;54931;52.098;21.006;2023-06-22T09:22:36;29.05;46.89
68128;SHT30;54931;52.098;21.006;2023-06-22T09:25:04;28.92;46.80
68128;SHT30;54931;52.098;21.006;2023-06-22T09:27:33;28.82;46.73
68128;SHT30;54931;52.098;21.006;2023-06-22T09:30:00;28.82;46.63
68128;SHT30;54931;52.098;21.006;2023-06-22T09:32:30;28.92;48.35
68128;SHT30;54931;52.098;21.006;2023-06-22T09:34:58;29.12;46.58
68128;SHT30;54931;52.098;21.006;2023-06-22T09:37:25;29.17;44.67
68128;SHT30;54931;52.098;21.006;2023-06-22T09:39:53;29.17;46.03
68128;SHT30;54931;52.098;21.006;2023-06-22T09:42:21;29.18;46.60
68128;SHT30;54931;52.098;21.006;2023-06-22T09:44:49;29.22;46.97
68128;SHT30;54931;52.098;21.006;2023-06-22T09:47:16;29.29;45.24
68128;SHT30;54931;52.098;21.006;2023-06-22T09:49:44;29.28;45.03
68128;SHT30;54931;52.098;21.006;2023-06-22T09:52:12;29.24;45.76
68128;SHT30;54931;52.098;21.006;2023-06-22T09:54:40;29.44;46.52
68128;SHT30;54931;52.098;21.006;2023-06-22T09:57:08;29.63;45.74
68128;SHT30;54931;52.098;21.006;2023-06-22T09:59:36;29.65;44.20
68128;SHT30;54931;52.098;21.006;2023-06-22T10:02:04;29.70;45.77
68128;SHT30;54931;52.098;21.006;2023-06-22T10:04:34;29.82;44.26
68128;SHT30;54931;52.098;21.006;2023-06-22T10:07:03;29.72;43.15
68128;SHT30;54931;52.098;21.006;2023-06-22T10:09:31;29.63;43.43
68128;SHT30;54931;52.098;21.006;2023-06-22T10:11:58;29.60;42.62
68128;SHT30;54931;52.098;21.006;2023-06-22T10:14:26;29.63;43.83
68128;SHT30;54931;52.098;21.006;2023-06-22T10:16:56;29.73;43.25
68128;SHT30;54931;52.098;21.006;2023-06-22T10:19:24;29.84;44.59
68128;SHT30;54931;52.098;21.006;2023-06-22T10:21:51;29.97;43.91
68128;SHT30;54931;52.098;21.006;2023-06-22T10:24:19;30.06;43.66
68128;SHT30;54931;52.098;21.006;2023-06-22T10:26:46;30.09;44.32
68128;SHT30;54931;52.098;21.006;2023-06-22T10:29:14;30.12;43.69
68128;SHT30;54931;52.098;21.006;2023-06-22T10:31:41;30.08;44.63
68128;SHT30;54931;52.098;21.006;2023-06-22T10:34:09;29.94;42.77
68128;SHT30;54931;52.098;21.006;2023-06-22T10:36:36;29.70;42.40
68128;SHT30;54931;52.098;21.006;2023-06-22T10:39:04;29.52;43.33
68128;SHT30;54931;52.098;21.006;2023-06-22T10:41:33;29.55;44.45
68128;SHT30;54931;52.098;21.006;2023-06-22T10:44:00;29.52;44.80
68128;SHT30;54931;52.098;21.006;2023-06-22T10:46:27;29.62;45.72
68128;SHT30;54931;52.098;21.006;2023-06-22T10:48:55;29.66;44.81
68128;SHT30;54931;52.098;21.006;2023-06-22T10:51:25;29.71;45.79
68128;SHT30;54931;52.098;21.006;2023-06-22T10:53:55;29.86;45.87
68128;SHT30;54931;52.098;21.006;2023-06-22T10:56:22;29.95;44.61
68128;SHT30;54931;52.098;21.006;2023-06-22T10:58:50;29.86;45.14
68128;SHT30;54931;52.098;21.006;2023-06-22T11:01:18;29.91;45.66
68128;SHT30;54931;52.098;21.006;2023-06-22T11:03:47;29.92;45.09
68128;SHT30;54931;52.098;21.006;2023-06-22T11:06:14;29.83;44.79
68128;SHT30;54931;52.098;21.006;2023-06-22T11:08:43;29.66;45.06
68128;SHT30;54931;52.098;21.006;2023-06-22T11:11:12;29.62;47.13
68128;SHT30;54931;52.098;21.006;2023-06-22T11:13:39;29.71;46.79
68128;SHT30;54931;52.098;21.006;2023-06-22T11:16:07;29.79;45.98
68128;SHT30;54931;52.098;21.006;2023-06-22T11:18:34;29.72;44.61
68128;SHT30;54931;52.098;21.006;2023-06-22T11:21:02;29.57;45.53
68128;SHT30;54931;52.098;21.006;2023-06-22T11:23:30;29.56;46.65
68128;SHT30;54931;52.098;21.006;2023-06-22T11:25:57;29.60;46.29
68128;SHT30;54931;52.098;21.006;2023-06-22T11:28:26;29.56;46.32
68128;SHT30;54931;52.098;21.006;2023-06-22T11:30:54;29.56;46.15
68128;SHT30;54931;52.098;21.006;2023-06-22T11:33:21;29.49;46.32
68128;SHT30;54931;52.098;21.006;2023-06-22T11:35:49;29.54;47.24
68128;SHT30;54931;52.098;21.006;2023-06-22T11:38:17;29.65;46.68
68128;SHT30;54931;52.098;21.006;2023-06-22T11:40:45;29.62;46.59
68128;SHT30;54931;52.098;21.006;2023-06-22T11:43:12;29.64;45.75
68128;SHT30;54931;52.098;21.006;2023-06-22T11:45:42;29.56;44.38
68128;SHT30;54931;52.098;21.006;2023-06-22T11:48:09;29.39;44.43
68128;SHT30;54931;52.098;21.006;2023-06-22T11:50:37;29.28;46.48
68128;SHT30;54931;52.098;21.006;2023-06-22T11:53:04;29.34;45.86
68128;SHT30;54931;52.098;21.006;2023-06-22T11:55:32;29.32;46.25
68128;SHT30;54931;52.098;21.006;2023-06-22T11:58:00;29.34;46.64
68128;SHT30;54931;52.098;21.006;2023-06-22T12:00:30;29.32;46.08
68128;SHT30;54931;52.098;21.006;2023-06-22T12:02:58;29.27;45.93
68128;SHT30;54931;52.098;21.006;2023-06-22T12:05:25;29.28;46.34
68128;SHT30;54931;52.098;21.006;2023-06-22T12:07:53;29.27;45.63
68128;SHT30;54931;52.098;21.006;2023-06-22T12:10:22;29.25;46.90
68128;SHT30;54931;52.098;21.006;2023-06-22T12:12:50;29.31;45.76
68128;SHT30;54931;52.098;21.006;2023-06-22T12:15:17;29.37;45.40
68128;SHT30;54931;52.098;21.006;2023-06-22T12:17:46;29.39;45.48
68128;SHT30;54931;52.098;21.006;2023-06-22T12:20:15;29.52;45.61
68128;SHT30;54931;52.098;21.006;2023-06-22T12:22:43;29.60;44.78
68128;SHT30;54931;52.098;21.006;2023-06-22T12:25:11;29.63;44.93
68128;SHT30;54931;52.098;21.006;2023-06-22T12:27:39;29.73;45.79
68128;SHT30;54931;52.098;21.006;2023-06-22T12:30:06;29.84;44.89
68128;SHT30;54931;52.098;21.006;2023-06-22T12:32:36;29.81;43.64
68128;SHT30;54931;52.098;21.006;2023-06-22T12:35:03;29.64;43.64
68128;SHT30;54931;52.098;21.006;2023-06-22T12:37:31;29.60;44.89
68128;SHT30;54931;52.098;21.006;2023-06-22T12:39:59;29.67;44.20
68128;SHT30;54931;52.098;21.006;2023-06-22T12:42:27;29.76;44.57
68128;SHT30;54931;52.098;21.006;2023-06-22T12:44:55;29.90;45.27
68128;SHT30;54931;52.098;21.006;2023-06-22T12:47:22;30.04;44.36
68128;SHT30;54931;52.098;21.006;2023-06-22T12:49:50;30.04;44.05
68128;SHT30;54931;52.098;21.006;2023-06-22T12:52:17;30.00;43.79
68128;SHT30;54931;52.098;21.006;2023-06-22T12:54:45;29.95;44.17
68128;SHT30;54931;52.098;21.006;2023-06-22T12:57:12;29.89;43.63
68128;SHT30;54931;52.098;21.006;2023-06-22T12:59:40;29.77;43.71
68128;SHT30;54931;52.098;21.006;2023-06-22T13:02:07;29.68;42.98
68128;SHT30;54931;52.098;21.006;2023-06-22T13:04:35;29.57;43.30
68128;SHT30;54931;52.098;21.006;2023-06-22T13:07:03;29.54;44.50
68128;SHT30;54931;52.098;21.006;2023-06-22T13:09:31;29.64;44.99
68128;SHT30;54931;52.098;21.006;2023-06-22T13:11:59;29.74;44.59
68128;SHT30;54931;52.098;21.006;2023-06-22T13:14:27;29.82;44.10
68128;SHT30;54931;52.098;21.006;2023-06-22T13:16:55;29.78;42.17
68128;SHT30;54931;52.098;21.006;2023-06-22T13:19:22;29.70;41.70
68128;SHT30;54931;52.098;21.006;2023-06-22T13:21:50;29.63;42.25
68128;SHT30;54931;52.098;21.006;2023-06-22T13:24:17;29.66;42.63
68128;SHT30;54931;52.098;21.006;2023-06-22T13:26:45;29.68;41.37
68128;SHT30;54931;52.098;21.006;2023-06-22T13:29:12;29.66;42.77
68128;SHT30;54931;52.098;21.006;2023-06-22T13:31:40;29.78;42.80
68128;SHT30;54931;52.098;21.006;2023-06-22T13:34:07;29.88;41.28
68128;SHT30;54931;52.098;21.006;2023-06-22T13:36:35;29.96;43.06
68128;SHT30;54931;52.098;21.006;2023-06-22T13:39:03;30.09;41.70
68128;SHT30;54931;52.098;21.006;2023-06-22T13:41:30;30.04;40.93
68128;SHT30;54931;52.098;21.006;2023-06-22T13:43:59;29.97;41.49
68128;SHT30;54931;52.098;21.006;2023-06-22T13:46:27;30.02;41.65
68128;SHT30;54931;52.098;21.006;2023-06-22T13:48:55;29.97;41.27
68128;SHT30;54931;52.098;21.006;2023-06-22T13:51:23;29.92;41.69
68128;SHT30;54931;52.098;21.006;2023-06-22T13:53:51;29.92;41.83
68128;SHT30;54931;52.098;21.006;2023-06-22T13:56:18;29.99;41.59
68128;SHT30;54931;52.098;21.006;2023-06-22T13:58:46;30.08;41.41
68128;SHT30;54931;52.098;21.006;2023-06-22T14:01:13;30.16;41.26
68128;SHT30;54931;52.098;21.006;2023-06-22T14:03:40;30.23;40.88
68128;SHT30;54931;52.098;21.006;2023-06-22T14:06:08;30.20;40.41
68128;SHT30;54931;52.098;21.006;2023-06-22T14:08:37;30.07;39.03
68128;SHT30;54931;52.098;21.006;2023-06-22T14:11:05;29.97;39.67
68128;SHT30;54931;52.098;21.006;2023-06-22T14:13:32;29.91;40.34
68128;SHT30;54931;52.098;21.006;2023-06-22T14:16:00;29.92;39.77
68128;SHT30;54931;52.098;21.006;2023-06-22T14:18:27;29.90;39.58
68128;SHT30;54931;52.098;21.006;2023-06-22T14:20:55;29.92;40.02
68128;SHT30;54931;52.098;21.006;2023-06-22T14:23:23;29.89;40.17
68128;SHT30;54931;52.098;21.006;2023-06-22T14:25:51;29.90;40.54
68128;SHT30;54931;52.098;21.006;2023-06-22T14:28:19;29.95;39.76
68128;SHT30;54931;52.098;21.006;2023-06-22T14:30:46;29.96;40.27
68128;SHT30;54931;52.098;21.006;2023-06-22T14:33:14;29.92;40.48
68128;SHT30;54931;52.098;21.006;2023-06-22T14:35:42;29.91;39.48
68128;SHT30;54931;52.098;21.006;2023-06-22T14:38:09;29.94;40.40
68128;SHT30;54931;52.098;21.006;2023-06-22T14:40:37;30.06;40.80
68128;SHT30;54931;52.098;21.006;2023-06-22T14:43:05;30.11;40.18
68128;SHT30;54931;52.098;21.006;2023-06-22T14:45:32;30.12;39.88
68128;SHT30;54931;52.098;21.006;2023-06-22T14:48:00;30.09;39.53
68128;SHT30;54931;52.098;21.006;2023-06-22T14:50:27;30.09;39.67
68128;SHT30;54931;52.098;21.006;2023-06-22T14:52:55;30.17;39.57
68128;SHT30;54931;52.098;21.006;2023-06-22T14:55:22;30.30;39.22
68128;SHT30;54931;52.098;21.006;2023-06-22T14:57:50;30.49;39.66
68128;SHT30;54931;52.098;21.006;2023-06-22T15:00:18;30.58;39.09
68128;SHT30;54931;52.098;21.006;2023-06-22T15:02:46;30.39;38.55
68128;SHT30;54931;52.098;21.006;2023-06-22T15:05:14;30.19;39.52
68128;SHT30;54931;52.098;21.006;2023-06-22T15:07:42;30.06;39.41
68128;SHT30;54931;52.098;21.006;2023-06-22T15:10:10;30.00;40.43
68128;SHT30;54931;52.098;21.006;2023-06-22T15:12:37;29.94;41.16
68128;SHT30;54931;52.098;21.006;2023-06-22T15:15:05;29.92;40.60
68128;SHT30;54931;52.098;21.006;2023-06-22T15:17:34;29.92;40.74
68128;SHT30;54931;52.098;21.006;2023-06-22T15:20:02;29.96;41.36
68128;SHT30;54931;52.098;21.006;2023-06-22T15:22:32;29.94;40.78
68128;SHT30;54931;52.098;21.006;2023-06-22T15:25:00;29.91;40.88
68128;SHT30;54931;52.098;21.006;2023-06-22T15:27:31;29.93;41.03
68128;SHT30;54931;52.098;21.006;2023-06-22T15:29:59;29.99;41.40
68128;SHT30;54931;52.098;21.006;2023-06-22T15:32:26;30.08;42.33
68128;SHT30;54931;52.098;21.006;2023-06-22T15:34:55;30.20;41.64
68128;SHT30;54931;52.098;21.006;2023-06-22T15:37:23;30.21;41.48